Time;durP1;ratioP1;P1;durP2;ratioP2;P2;SDS_P1;SDS_P2;PMS_P1;PMS_P2;Temp;Humidity;BMP_temperature;BMP_pressure;BME280_temperature;BME280_humidity;BME280_pressure;Samples;Min_cycle;Max_cycle;Signal;HPM_P1;HPM_P2
2022/10/02 00:02:09;;;;;;;11.98;2.22;;;;;;;13.75;100.00;101034.50;5055071;28;20044;-75
2022/10/02 00:04:43;;;;;;;24.30;1.95;;;;;;;13.71;100.00;101033.75;5056190;28;20155;-75
2022/10/02 00:07:11;;;;;;;21.23;4.75;;;;;;;13.74;100.00;101035.69;5060349;28;20824;-76
2022/10/02 00:09:47;;;;;;;10.45;2.45;;;;;;;13.70;100.00;101037.72;5059128;28;20752;-75
2022/10/02 00:12:17;;;;;;;16.73;4.85;;;;;;;13.82;100.00;101030.88;5057691;28;20051;-74
2022/10/02 00:14:46;;;;;;;18.70;3.40;;;;;;;13.69;100.00;101036.16;5061067;28;20052;-73
2022/10/02 00:17:28;;;;;;;20.00;4.47;;;;;;;13.68;100.00;101034.59;5063891;28;20061;-75
2022/10/02 00:19:55;;;;;;;9.00;2.13;;;;;;;13.65;100.00;101035.41;5064750;28;20055;-76
2022/10/02 00:22:44;;;;;;;24.38;4.07;;;;;;;13.70;100.00;101040.50;5061272;28;20055;-74
2022/10/02 00:25:26;;;;;;;9.60;2.90;;;;;;;13.69;100.00;101041.72;5055559;28;20075;-75
2022/10/02 00:28:01;;;;;;;23.23;5.55;;;;;;;13.73;100.00;101044.47;5061080;28;20052;-74
2022/10/02 00:30:35;;;;;;;18.88;4.78;;;;;;;13.75;100.00;101040.06;5062717;28;20044;-76
2022/10/02 00:33:28;;;;;;;21.08;5.25;;;;;;;13.75;100.00;101040.06;5059633;28;20047;-75
2022/10/02 00:36:23;;;;;;;17.85;4.70;;;;;;;13.71;100.00;101052.44;5070579;28;20048;-78
2022/10/02 00:39:40;;;;;;;23.30;7.00;;;;;;;13.79;100.00;101056.72;5060412;28;20048;-74
2022/10/02 00:42:15;;;;;;;;;;;;;;;13.73;100.00;101050.81;5050008;28;20055;-74
2022/10/02 00:45:11;;;;;;;13.02;3.70;;;;;;;13.75;100.00;101055.97;5061156;28;19989;-76
2022/10/02 00:47:53;;;;;;;16.33;3.53;;;;;;;13.74;100.00;101059.94;5063579;28;20914;-74
2022/10/02 00:50:27;;;;;;;18.42;4.30;;;;;;;13.75;100.00;101053.97;5068184;28;20303;-77
2022/10/02 00:53:20;;;;;;;8.70;2.08;;;;;;;13.73;100.00;101058.38;5063417;28;20047;-75
2022/10/02 00:56:09;;;;;;;7.97;2.45;;;;;;;13.76;100.00;101052.78;5066291;28;20311;-76
2022/10/02 00:58:54;;;;;;;26.23;5.53;;;;;;;13.76;100.00;101054.75;5060751;28;20063;-74
2022/10/02 01:01:42;;;;;;;19.33;3.80;;;;;;;13.77;100.00;101062.69;5066210;28;20438;-75
2022/10/02 01:04:14;;;;;;;19.80;3.47;;;;;;;13.75;100.00;101070.66;5059312;28;20549;-75
2022/10/02 01:06:41;;;;;;;17.45;3.85;;;;;;;13.79;100.00;101065.06;5066013;28;20044;-74
2022/10/02 01:09:07;;;;;;;19.77;4.53;;;;;;;13.83;100.00;101074.16;5065921;28;20100;-74
2022/10/02 01:11:34;;;;;;;8.60;2.50;;;;;;;13.82;100.00;101078.94;5062765;28;20124;-77
2022/10/02 01:14:01;;;;;;;7.38;1.92;;;;;;;13.82;100.00;101076.16;5063192;28;20052;-77
2022/10/02 01:16:27;;;;;;;20.70;4.50;;;;;;;13.86;100.00;101076.13;5070725;28;20052;-77
2022/10/02 01:18:54;;;;;;;22.20;3.78;;;;;;;13.87;100.00;101075.72;5067971;28;20047;-75
2022/10/02 01:21:36;;;;;;;6.32;2.30;;;;;;;13.91;100.00;101076.47;5063462;28;20055;-77
2022/10/02 01:24:17;;;;;;;23.90;5.78;;;;;;;13.98;100.00;101070.06;5059657;28;20048;-75
2022/10/02 01:26:44;;;;;;;22.40;5.05;;;;;;;14.09;100.00;101070.75;5066602;28;20052;-74
2022/10/02 01:29:10;;;;;;;23.08;5.25;;;;;;;14.07;100.00;101073.16;5062041;28;20059;-74
2022/10/02 01:31:37;;;;;;;23.27;5.10;;;;;;;14.09;100.00;101076.31;5065209;28;20896;-75
2022/10/02 01:34:04;;;;;;;24.42;5.40;;;;;;;14.13;100.00;101074.28;5063925;28;20048;-75
2022/10/02 01:36:31;;;;;;;21.13;4.50;;;;;;;14.05;100.00;101076.38;5052724;28;20052;-75
2022/10/02 01:38:59;;;;;;;22.98;4.72;;;;;;;14.08;100.00;101069.19;5059003;28;20195;-74
2022/10/02 01:41:25;;;;;;;22.98;4.57;;;;;;;14.07;100.00;101076.72;5055434;28;20060;-76
2022/10/02 01:43:57;;;;;;;19.77;4.57;;;;;;;14.11;100.00;101068.34;5061962;28;20067;-77
2022/10/02 01:46:23;;;;;;;29.20;5.30;;;;;;;14.14;100.00;101076.66;5062128;28;20052;-77
2022/10/02 01:49:11;;;;;;;22.05;5.25;;;;;;;14.08;100.00;101069.97;5064397;28;20105;-76
2022/10/02 01:51:57;;;;;;;17.15;4.68;;;;;;;14.07;100.00;101067.59;5060542;28;20051;-76
2022/10/02 01:54:49;;;;;;;24.55;5.72;;;;;;;14.07;100.00;101071.16;5062522;28;20542;-77
2022/10/02 01:57:37;;;;;;;16.65;4.18;;;;;;;14.04;100.00;101063.63;5054533;28;20048;-77
2022/10/02 02:00:16;;;;;;;22.20;4.47;;;;;;;14.01;100.00;101069.25;5056684;28;20090;-77
2022/10/02 02:03:10;;;;;;;23.58;5.38;;;;;;;14.02;100.00;101066.06;5059023;28;20059;-75
2022/10/02 02:05:58;;;;;;;26.27;5.38;;;;;;;14.02;100.00;101068.03;5062305;28;20693;-75
2022/10/02 02:08:36;;;;;;;16.95;3.67;;;;;;;13.96;100.00;101067.69;5066572;28;20044;-76
2022/10/02 02:11:15;;;;;;;31.35;6.30;;;;;;;13.98;100.00;101065.31;5059744;28;20586;-74
2022/10/02 02:13:46;;;;;;;30.48;5.10;;;;;;;14.04;100.00;101063.63;5082811;28;20059;-75
2022/10/02 02:16:16;;;;;;;17.45;3.35;;;;;;;14.01;100.00;101058.88;5082197;28;20056;-73
2022/10/02 02:18:50;;;;;;;32.42;5.85;;;;;;;14.07;100.00;101062.81;5087770;28;20131;-74
2022/10/02 02:21:37;;;;;;;24.52;5.28;;;;;;;14.06;100.00;101061.22;5087149;28;20052;-74
2022/10/02 02:24:10;;;;;;;28.13;6.03;;;;;;;14.15;100.00;101069.09;5079114;28;20124;-72
2022/10/02 02:26:37;;;;;;;35.03;6.85;;;;;;;14.14;100.00;101071.09;5072355;28;20052;-73
2022/10/02 02:29:07;;;;;;;21.73;5.38;;;;;;;14.13;100.00;101071.50;5084865;28;20052;-73
2022/10/02 02:31:46;;;;;;;26.20;5.82;;;;;;;14.20;100.00;101065.84;5080847;28;20322;-73
2022/10/02 02:34:19;;;;;;;23.67;6.10;;;;;;;14.28;100.00;101061.84;5078111;28;20114;-74
2022/10/02 02:36:50;;;;;;;25.23;5.60;;;;;;;14.24;100.00;101067.44;5077944;28;20052;-73
2022/10/02 02:39:28;;;;;;;17.40;2.72;;;;;;;14.31;100.00;101067.34;5082730;28;20048;-75
2022/10/02 02:42:01;;;;;;;15.68;3.08;;;;;;;14.35;100.00;101065.31;5087290;28;20052;-73
2022/10/02 02:44:32;;;;;;;14.60;2.80;;;;;;;14.39;100.00;101060.53;5076960;28;20048;-74
2022/10/02 02:47:10;;;;;;;30.35;5.50;;;;;;;14.53;100.00;101065.94;5071380;28;20509;-74
2022/10/02 02:50:04;;;;;;;38.83;5.95;;;;;;;14.55;100.00;101062.72;5073256;28;20048;-73
2022/10/02 02:52:40;;;;;;;35.40;6.45;;;;;;;14.53;100.00;101065.94;5075932;28;20056;-74
2022/10/02 02:55:22;;;;;;;29.83;5.07;;;;;;;14.48;100.00;101057.25;5076212;28;20056;-73
2022/10/02 02:58:07;;;;;;;31.55;4.97;;;;;;;14.50;100.00;101063.16;5082205;28;20424;-75
2022/10/02 03:00:34;;;;;;;22.20;4.43;;;;;;;14.47;100.00;101075.94;5072834;28;20530;-75
2022/10/02 03:03:01;;;;;;;30.50;5.70;;;;;;;14.49;100.00;101076.31;5083584;28;20044;-75
2022/10/02 03:05:28;;;;;;;25.63;4.40;;;;;;;14.47;100.00;101075.94;5083164;28;20475;-74
2022/10/02 03:08:00;;;;;;;30.30;4.45;;;;;;;14.46;100.00;101068.00;5082088;28;20052;-73
2022/10/02 03:10:31;;;;;;;10.00;2.30;;;;;;;14.39;100.00;101066.09;5078561;28;20052;-73
2022/10/02 03:13:35;;;;;;;22.60;4.40;;;;;;;14.44;100.00;101071.19;5078361;28;20109;-73
2022/10/02 03:16:05;;;;;;;23.20;4.35;;;;;;;14.40;100.00;101073.22;5073279;28;20044;-74
2022/10/02 03:18:51;;;;;;;33.80;5.50;;;;;;;14.45;100.00;101075.53;5084152;28;20045;-76
2022/10/02 03:21:36;;;;;;;31.58;5.80;;;;;;;14.47;100.00;101066.78;5083152;28;20425;-74
2022/10/02 03:24:42;;;;;;;32.00;5.18;;;;;;;14.45;100.00;101072.00;5074778;28;20052;-73
2022/10/02 03:27:22;;;;;;;14.95;3.53;;;;;;;14.45;100.00;101072.75;5076868;28;20052;-73
2022/10/02 03:29:55;;;;;;;14.90;2.55;;;;;;;14.43;100.00;101080.75;5081988;28;20101;-75
2022/10/02 03:32:23;;;;;;;8.05;2.38;;;;;;;14.43;100.00;101071.59;5077994;28;20056;-73
2022/10/02 03:34:49;;;;;;;35.30;6.55;;;;;;;14.51;100.00;101059.97;5079693;28;20048;-73
2022/10/02 03:37:16;;;;;;;33.72;6.97;;;;;;;14.59;100.00;101066.25;5079344;28;20056;-75
2022/10/02 03:39:44;;;;;;;29.50;6.00;;;;;;;14.59;100.00;101063.47;5075776;28;20508;-74
2022/10/02 03:42:13;;;;;;;31.52;6.00;;;;;;;14.51;100.00;101062.00;5077855;28;20048;-74
2022/10/02 03:44:39;;;;;;;32.88;5.40;;;;;;;14.50;100.00;101055.63;5081030;28;20059;-74
2022/10/02 03:47:06;;;;;;;15.43;4.15;;;;;;;14.42;100.00;101053.34;5069355;28;20057;-75
2022/10/02 03:49:33;;;;;;;35.97;5.38;;;;;;;14.48;100.00;101049.66;5079594;28;20048;-75
2022/10/02 03:52:00;;;;;;;29.10;4.93;;;;;;;14.49;100.00;101056.84;5072055;28;20500;-74
2022/10/02 03:54:32;;;;;;;21.83;4.47;;;;;;;14.46;100.00;101054.06;5078744;28;20064;-75
2022/10/02 03:57:03;;;;;;;21.33;4.70;;;;;;;14.49;100.00;101064.38;5084711;28;20436;-72
2022/10/02 03:59:33;;;;;;;37.42;7.50;;;;;;;14.50;100.00;101057.59;5086412;28;20044;-73
2022/10/02 04:02:05;;;;;;;22.95;5.13;;;;;;;14.48;100.00;101060.81;5075351;28;20051;-73
2022/10/02 04:04:41;;;;;;;29.13;4.90;;;;;;;14.49;100.00;101062.41;5069374;28;20052;-75
2022/10/02 04:07:17;;;;;;;34.50;6.03;;;;;;;14.48;100.00;101060.03;5083000;28;20048;-76
2022/10/02 04:10:08;;;;;;;32.03;4.72;;;;;;;14.46;100.00;101065.22;5078591;28;20489;-75
2022/10/02 04:12:39;;;;;;;20.27;3.95;;;;;;;14.50;100.00;101065.97;5084225;28;20524;-75
2022/10/02 04:15:20;;;;;;;29.77;5.90;;;;;;;14.54;100.00;101061.13;5076200;28;20052;-75
2022/10/02 04:17:46;;;;;;;34.45;6.57;;;;;;;14.59;100.00;101069.84;5087697;28;20048;-74
2022/10/02 04:20:30;;;;;;;23.20;4.22;;;;;;;14.54;100.00;101075.06;5085691;28;20036;-73
2022/10/02 04:23:12;;;;;;;33.45;8.20;;;;;;;14.62;100.00;101071.00;5073551;28;20133;-75
2022/10/02 04:25:44;;;;;;;25.95;5.45;;;;;;;14.61;100.00;101069.41;5074532;28;20048;-75
2022/10/02 04:28:18;;;;;;;21.88;3.58;;;;;;;14.66;100.00;101066.16;5084001;28;20043;-74
2022/10/02 04:30:44;;;;;;;41.03;5.37;;;;;;;14.70;100.00;101070.50;5082003;28;20130;-76
2022/10/02 04:33:18;;;;;;;39.42;6.18;;;;;;;14.71;100.00;101074.84;5071605;28;20295;-76
2022/10/02 04:36:13;;;;;;;31.45;5.55;;;;;;;14.74;100.00;101084.38;5088116;28;20056;-73
2022/10/02 04:39:00;;;;;;;32.15;6.22;;;;;;;14.75;100.00;101086.72;5072125;28;20071;-74
2022/10/02 04:41:45;;;;;;;24.58;5.72;;;;;;;14.71;100.00;101086.00;5076850;28;20052;-75
2022/10/02 04:44:17;;;;;;;31.67;6.13;;;;;;;14.76;100.00;101088.34;5075184;28;20048;-76
2022/10/02 04:46:55;;;;;;;28.05;5.80;;;;;;;14.72;100.00;101090.34;5090192;28;20114;-75
2022/10/02 04:49:25;;;;;;;25.45;5.60;;;;;;;14.75;100.00;101097.88;5081805;28;20049;-74
2022/10/02 04:52:19;;;;;;;17.45;3.55;;;;;;;14.73;100.00;101094.75;5080513;28;20047;-73
2022/10/02 04:55:06;;;;;;;13.25;2.90;;;;;;;14.66;100.00;101091.25;5081357;28;20058;-75
2022/10/02 04:58:01;;;;;;;15.90;3.53;;;;;;;14.75;100.00;101086.72;5086390;28;20040;-72
2022/10/02 05:00:35;;;;;;;33.70;6.07;;;;;;;14.75;100.00;101085.97;5076694;28;20059;-76
2022/10/02 05:03:24;;;;;;;13.57;2.83;;;;;;;14.72;100.00;101082.00;5086688;28;20048;-76
2022/10/02 05:06:11;;;;;;;21.02;3.97;;;;;;;14.72;100.00;101082.00;5079260;28;20053;-75
2022/10/02 05:08:41;;;;;;;25.98;5.30;;;;;;;14.77;100.00;101083.53;5083028;28;20056;-74
2022/10/02 05:11:40;;;;;;;30.45;5.28;;;;;;;14.73;100.00;101083.59;5078127;28;20048;-74
2022/10/02 05:14:19;;;;;;;21.30;3.83;;;;;;;14.74;100.00;101085.16;5082142;28;20105;-76
2022/10/02 05:17:10;;;;;;;28.20;5.50;;;;;;;14.73;100.00;101091.94;5083461;28;20052;-72
2022/10/02 05:20:01;;;;;;;26.08;5.40;;;;;;;14.69;100.00;101095.97;5072087;28;20074;-75
2022/10/02 05:22:30;;;;;;;25.98;5.38;;;;;;;14.72;100.00;101093.13;5085400;28;20052;-74
2022/10/02 05:25:24;;;;;;;19.38;5.07;;;;;;;14.73;100.00;101096.72;5088996;28;20161;-75
2022/10/02 05:28:09;;;;;;;28.50;7.00;;;;;;;14.82;100.00;101095.00;5079065;28;20056;-75
2022/10/02 05:31:10;;;;;;;18.58;4.60;;;;;;;14.76;100.00;101104.25;5079422;28;20511;-73
2022/10/02 05:34:08;;;;;;;15.18;3.08;;;;;;;14.84;100.00;101103.75;5086461;28;20050;-74
2022/10/02 05:36:58;;;;;;;7.65;1.95;;;;;;;14.85;100.00;101107.34;5073074;28;20045;-74
2022/10/02 05:39:37;;;;;;;10.95;2.17;;;;;;;14.81;100.00;101117.69;5074846;28;20043;-72
2022/10/02 05:42:27;;;;;;;13.48;3.28;;;;;;;14.83;100.00;101102.19;5077824;28;20055;-75
2022/10/02 05:45:01;;;;;;;8.82;2.92;;;;;;;14.85;100.00;101094.16;5085573;28;20055;-75
2022/10/02 05:47:30;;;;;;;21.35;4.55;;;;;;;14.92;100.00;101098.88;5082625;28;20040;-74
2022/10/02 05:49:57;;;;;;;18.40;2.78;;;;;;;14.92;100.00;101099.66;5084786;28;20048;-75
2022/10/02 05:52:41;;;;;;;9.13;4.32;;;;;;;14.90;100.00;101099.28;5078432;28;20044;-73
2022/10/02 05:55:33;;;;;;;3.38;1.33;;;;;;;14.89;100.00;101103.28;5086036;28;20081;-73
2022/10/02 05:58:11;;;;;;;18.92;3.08;;;;;;;14.93;100.00;101119.97;5066968;28;20118;-73
2022/10/02 06:00:46;;;;;;;17.20;3.97;;;;;;;15.04;100.00;101107.47;5075074;28;20036;-73
2022/10/02 06:03:34;;;;;;;10.65;1.08;;;;;;;14.92;100.00;101108.00;5081182;28;20048;-74
2022/10/02 06:06:27;;;;;;;10.68;2.38;;;;;;;14.96;100.00;101119.13;5073406;28;20060;-74
2022/10/02 06:09:13;;;;;;;10.15;2.45;;;;;;;14.95;100.00;101121.09;5081516;28;20075;-72
2022/10/02 06:11:48;;;;;;;13.68;3.25;;;;;;;15.06;100.00;101132.91;5080034;28;20051;-73
2022/10/02 06:14:26;;;;;;;18.25;3.55;;;;;;;15.07;100.00;101137.28;5074356;28;20048;-75
2022/10/02 06:17:01;;;;;;;18.33;4.05;;;;;;;15.07;100.00;101137.28;5086458;28;20539;-75
2022/10/02 06:19:41;;;;;;;24.85;3.90;;;;;;;15.07;100.00;101142.88;5086276;28;20045;-75
2022/10/02 06:22:11;;;;;;;14.10;2.92;;;;;;;15.06;100.00;101144.06;5073656;28;20527;-73
2022/10/02 06:25:24;;;;;;;11.68;3.13;;;;;;;15.08;100.00;101149.22;5085429;28;20055;-75
2022/10/02 06:27:59;;;;;;;11.82;3.42;;;;;;;15.15;100.00;101151.91;5076774;28;20048;-72
2022/10/02 06:30:31;;;;;;;13.63;4.50;;;;;;;15.15;100.00;101161.06;5079943;28;20817;-74
2022/10/02 06:33:08;;;;;;;18.90;4.80;;;;;;;15.26;100.00;101155.38;5086146;28;20044;-73
2022/10/02 06:36:03;;;;;;;11.93;3.08;;;;;;;15.20;100.00;101157.03;5082378;28;20052;-74
2022/10/02 06:38:59;;;;;;;21.45;4.40;;;;;;;15.24;100.00;101166.13;5084193;28;20127;-76
2022/10/02 06:41:50;;;;;;;19.42;4.78;;;;;;;15.30;100.00;101168.03;5075652;28;20507;-76
2022/10/02 06:44:46;;;;;;;19.27;5.82;;;;;;;15.36;100.00;101174.00;5069483;28;20052;-75
2022/10/02 06:47:33;;;;;;;9.52;2.70;;;;;;;15.27;100.00;101177.25;5073723;28;20086;-75
2022/10/02 06:50:15;;;;;;;19.08;5.68;;;;;;;15.41;100.00;101179.09;5083881;28;20119;-73
2022/10/02 06:53:04;;;;;;;19.77;4.88;;;;;;;15.46;100.00;101176.59;5072073;28;20052;-76
2022/10/02 06:55:47;;;;;;;24.58;7.32;;;;;;;15.46;100.00;101182.19;5075166;28;20526;-72
2022/10/02 06:58:32;;;;;;;20.17;5.07;;;;;;;15.48;100.00;101194.94;5082451;28;20052;-76
2022/10/02 07:01:08;;;;;;;19.20;5.10;;;;;;;15.46;100.00;101187.00;5083180;28;20044;-75
2022/10/02 07:03:46;;;;;;;22.98;5.53;;;;;;;15.49;100.00;101198.09;5088925;28;20097;-73
2022/10/02 07:06:32;;;;;;;24.52;6.22;;;;;;;15.44;100.00;101195.78;5081997;28;20043;-75
2022/10/02 07:09:31;;;;;;;16.67;5.32;;;;;;;15.41;100.00;101198.59;5089112;28;20103;-75
2022/10/02 07:12:13;;;;;;;10.90;4.55;;;;;;;15.39;100.00;101192.66;5075250;28;20044;-74
2022/10/02 07:15:14;;;;;;;22.08;6.32;;;;;;;15.42;100.00;101194.59;5078904;28;20055;-73
2022/10/02 07:17:46;;;;;;;19.58;6.00;;;;;;;15.50;100.00;101194.06;5081054;28;20056;-74
2022/10/02 07:20:24;;;;;;;19.00;5.18;;;;;;;15.49;100.00;101202.88;5086497;28;20487;-73
2022/10/02 07:23:24;;;;;;;19.75;6.18;;;;;;;15.61;100.00;101199.53;5079826;28;20053;-73
2022/10/02 07:26:22;;;;;;;15.40;4.20;;;;;;;15.66;100.00;101189.91;5081313;28;20048;-71
2022/10/02 07:29:29;;;;;;;20.33;5.80;;;;;;;15.67;100.00;101199.84;5081479;28;20059;-72
2022/10/02 07:32:14;;;;;;;30.10;6.93;;;;;;;15.83;100.00;101208.38;5082009;28;20051;-72
2022/10/02 07:34:50;;;;;;;24.38;6.35;;;;;;;15.85;100.00;101217.09;5077219;28;20052;-70
2022/10/02 07:37:23;;;;;;;14.25;4.75;;;;;;;15.83;100.00;101217.53;5080845;28;20064;-71
2022/10/02 07:40:02;;;;;;;14.20;4.15;;;;;;;15.87;100.00;101223.88;5080202;28;20056;-71
2022/10/02 07:42:31;;;;;;;23.38;5.28;;;;;;;15.90;100.00;101230.59;5080340;28;20044;-75
2022/10/02 07:45:25;;;;;;;22.85;6.25;;;;;;;15.93;100.00;101232.56;5090053;28;20059;-71
2022/10/02 07:47:57;;;;;;;20.30;5.45;;;;;;;15.89;100.00;101229.81;5087601;28;20102;-72
2022/10/02 07:50:37;;;;;;;20.30;5.63;;;;;;;15.92;100.00;101242.91;5078484;28;20458;-72
2022/10/02 07:53:37;;;;;;;21.63;6.07;;;;;;;16.03;100.00;101239.97;5073015;28;20052;-73
2022/10/02 07:56:06;;;;;;;19.05;4.72;;;;;;;16.02;100.00;101243.97;5089369;28;20058;-72
2022/10/02 07:58:39;;;;;;;15.43;4.90;;;;;;;16.07;100.00;101243.50;5085845;28;20044;-72
2022/10/02 08:01:15;;;;;;;25.73;6.72;;;;;;;16.11;100.00;101252.59;5082073;28;20055;-72
2022/10/02 08:03:55;;;;;;;24.50;5.85;;;;;;;16.12;100.00;101254.19;5077191;28;20051;-71
2022/10/02 08:06:22;;;;;;;18.98;5.57;;;;;;;16.10;100.00;101253.81;5075992;28;20063;-73
2022/10/02 08:08:54;;;;;;;22.65;8.00;;;;;;;16.21;100.00;101255.25;5079548;28;20057;-73
2022/10/02 08:11:30;;;;;;;29.48;7.28;;;;;;;16.28;100.00;101238.38;5104552;28;20052;-72
2022/10/02 08:14:07;;;;;;;10.02;3.63;;;;;;;16.26;100.00;101245.59;5088597;28;20054;-71
2022/10/02 08:16:46;;;;;;;24.30;7.05;;;;;;;16.43;100.00;101250.16;5091425;28;20052;-71
2022/10/02 08:19:24;;;;;;;24.80;8.40;;;;;;;16.52;100.00;101250.38;5076010;28;20047;-72
2022/10/02 08:22:04;;;;;;;28.23;7.72;;;;;;;16.73;100.00;101244.41;5081299;28;20088;-71
2022/10/02 08:24:39;;;;;;;20.17;6.13;;;;;;;16.66;100.00;101261.28;5090235;28;20044;-72
2022/10/02 08:27:14;;;;;;;24.83;8.23;;;;;;;16.74;100.00;101248.81;5089566;28;20052;-72
2022/10/02 08:29:47;;;;;;;23.38;6.97;;;;;;;16.80;100.00;101247.06;5080268;28;20059;-71
2022/10/02 08:32:14;;;;;;;27.38;8.70;;;;;;;17.03;100.00;101249.84;5073574;28;20046;-72
2022/10/02 08:34:42;;;;;;;13.45;3.28;;;;;;;17.09;100.00;101256.53;5081077;28;20048;-72
2022/10/02 08:37:46;;;;;;;9.63;3.45;;;;;;;17.06;100.00;101251.78;5081355;28;20063;-73
2022/10/02 08:40:50;;;;;;;27.33;7.65;;;;;;;17.15;100.00;101257.59;5079829;28;20044;-71
2022/10/02 08:43:32;;;;;;;25.50;8.32;;;;;;;17.27;100.00;101260.56;5079753;28;20124;-72
2022/10/02 08:46:26;;;;;;;9.95;3.60;;;;;;;17.07;100.00;101265.34;5081034;28;20040;-71
2022/10/02 08:49:30;;;;;;;25.70;7.38;;;;;;;17.35;100.00;101258.41;5074170;28;20052;-71
2022/10/02 08:52:24;;;;;;;30.33;7.60;;;;;;;17.24;100.00;101266.19;5079196;28;20049;-71
2022/10/02 08:55:20;;;;;;;20.23;5.25;;;;;;;17.17;100.00;101277.53;5073658;28;20056;-71
2022/10/02 08:58:03;;;;;;;24.67;7.10;;;;;;;17.29;100.00;101262.91;5083837;28;20048;-71
2022/10/02 09:00:35;;;;;;;20.77;7.80;;;;;;;17.35;100.00;101267.56;5085277;28;20055;-72
2022/10/02 09:03:27;;;;;;;24.13;7.00;;;;;;;17.37;100.00;101258.75;5068793;28;20056;-73
2022/10/02 09:06:18;;;;;;;21.02;7.93;;;;;;;17.31;100.00;101268.84;5079507;28;20497;-73
2022/10/02 09:09:06;;;;;;;15.55;5.75;;;;;;;17.31;100.00;101272.44;5076852;28;20061;-72
2022/10/02 09:12:09;;;;;;;18.92;6.45;;;;;;;17.34;100.00;101271.59;5083056;28;20051;-70
2022/10/02 09:14:36;;;;;;;19.58;5.70;;;;;;;17.27;100.00;101276.53;5080004;28;20048;-71
2022/10/02 09:17:02;;;;;;;8.57;2.72;;;;;;;17.13;100.00;101280.41;5083959;28;20385;-72
2022/10/02 09:19:47;;;;;;;21.42;6.50;;;;;;;17.21;100.00;101279.03;5070107;28;20051;-71
2022/10/02 09:22:35;;;;;;;26.15;6.88;;;;;;;17.30;100.00;101287.66;5076094;28;20078;-72
2022/10/02 09:25:27;;;;;;;10.13;3.30;;;;;;;17.17;100.00;101280.31;5074029;28;20048;-71
2022/10/02 09:28:21;;;;;;;22.60;7.82;;;;;;;17.31;100.00;101283.63;5077581;28;20605;-71
2022/10/02 09:30:47;;;;;;;20.58;7.93;;;;;;;17.40;100.00;101285.88;5072904;28;20049;-69
2022/10/02 09:33:20;;;;;;;23.00;8.20;;;;;;;17.60;100.00;101290.28;5098348;28;20062;-73
2022/10/02 09:36:00;;;;;;;22.40;7.85;;;;;;;17.69;100.00;101289.69;5096378;28;20078;-70
2022/10/02 09:38:52;;;;;;;17.40;6.07;;;;;;;17.65;100.00;101284.16;5070811;28;20048;-72
2022/10/02 09:41:48;;;;;;;27.75;7.82;;;;;;;17.82;100.00;101285.03;5083299;28;20047;-71
2022/10/02 09:44:36;;;;;;;25.92;7.53;;;;;;;17.80;100.00;101285.47;5073705;28;20387;-71
2022/10/02 09:47:35;;;;;;;23.83;7.47;;;;;;;17.74;100.00;101294.78;5082470;28;20407;-71
2022/10/02 09:50:48;;;;;;;22.38;5.88;;;;;;;17.59;100.00;101296.31;5081755;28;20135;-71
2022/10/02 09:53:40;;;;;;;25.05;7.18;;;;;;;17.73;100.00;101307.19;5073885;28;20063;-72
2022/10/02 09:56:52;;;;;;;25.52;7.55;;;;;;;17.75;100.00;101308.34;5073285;28;20047;-71
2022/10/02 09:59:47;;;;;;;29.77;8.43;;;;;;;17.76;100.00;101309.91;5079536;28;20040;-72
2022/10/02 10:02:56;;;;;;;21.75;7.60;;;;;;;17.71;100.00;101306.84;5064703;28;20474;-71
2022/10/02 10:05:59;;;;;;;21.25;7.78;;;;;;;18.00;100.00;101308.59;5069652;28;20576;-72
2022/10/02 10:08:54;;;;;;;18.50;6.90;;;;;;;18.31;100.00;101305.50;5076174;28;20142;-69
2022/10/02 10:11:36;;;;;;;12.15;4.20;;;;;;;18.37;100.00;101310.19;5071444;28;20059;-71
2022/10/02 10:14:35;;;;;;;15.57;5.43;;;;;;;18.39;100.00;101313.34;5079607;28;20064;-73
2022/10/02 10:17:07;;;;;;;22.17;7.38;;;;;;;18.42;100.00;101303.28;5082925;28;20056;-72
2022/10/02 10:19:34;;;;;;;22.63;5.68;;;;;;;18.47;100.00;101311.97;5068078;28;20052;-71
2022/10/02 10:22:20;;;;;;;16.52;5.57;;;;;;;18.47;100.00;101317.56;5067657;28;20053;-73
2022/10/02 10:25:09;;;;;;;20.70;5.65;;;;;;;18.47;100.00;101320.38;5068880;28;20052;-71
2022/10/02 10:28:27;;;;;;;20.65;5.55;;;;;;;18.38;100.00;101320.16;5079152;28;20061;-72
2022/10/02 10:31:12;;;;;;;17.42;5.03;;;;;;;18.33;100.00;101328.28;5077720;28;20485;-70
2022/10/02 10:33:54;;;;;;;19.60;5.00;;;;;;;18.61;100.00;101327.63;5078173;28;20101;-73
2022/10/02 10:39:48;;;;;;;16.80;4.78;;;;;;;18.77;100.00;101327.63;5069158;28;20496;-71
2022/10/02 10:42:46;;;;;;;14.93;4.80;;;;;;;19.03;100.00;101335.75;5067725;28;20052;-73
2022/10/02 10:46:05;;;;;;;18.63;4.82;;;;;;;19.36;100.00;101331.69;5065605;28;20117;-72
2022/10/02 10:48:44;;;;;;;11.98;3.42;;;;;;;19.34;100.00;101328.53;5079890;28;20039;-74
2022/10/02 10:51:18;;;;;;;17.23;4.43;;;;;;;19.40;100.00;101323.97;5075890;28;20089;-73
2022/10/02 10:53:59;;;;;;;16.58;5.70;;;;;;;19.34;100.00;101336.94;5081048;28;20052;-74
2022/10/02 10:56:43;;;;;;;17.45;4.13;;;;;;;19.56;100.00;101343.56;5081079;28;20052;-71
2022/10/02 10:59:26;;;;;;;19.00;4.30;;;;;;;19.92;100.00;101335.69;5081485;28;20040;-71
2022/10/02 11:01:55;;;;;;;19.58;3.80;;;;;;;20.08;100.00;101349.66;5080345;28;20040;-74
2022/10/02 11:04:39;;;;;;;14.30;3.45;;;;;;;19.90;100.00;101348.59;5078625;28;20040;-72
2022/10/02 11:07:33;;;;;;;16.35;3.78;;;;;;;19.91;100.00;101362.19;5085005;28;20048;-72
2022/10/02 11:10:21;;;;;;;14.55;3.28;;;;;;;19.70;100.00;101351.59;5075568;28;20044;-73
2022/10/02 11:13:00;;;;;;;14.00;3.63;;;;;;;19.41;99.51;101359.19;5084288;28;20048;-72
2022/10/02 11:15:38;;;;;;;12.77;3.08;;;;;;;19.35;100.00;101369.41;5068011;28;20583;-72
2022/10/02 11:18:20;;;;;;;15.43;2.75;;;;;;;19.47;100.00;101365.84;5075968;28;20055;-72
2022/10/02 11:21:12;;;;;;;15.70;3.38;;;;;;;19.45;100.00;101359.13;5051416;28;20213;-72
2022/10/02 11:24:04;;;;;;;17.75;3.50;;;;;;;19.50;99.87;101359.38;5053705;28;20064;-73
2022/10/02 11:26:54;;;;;;;10.98;2.45;;;;;;;19.22;97.76;101367.72;5054195;28;20056;-73
2022/10/02 11:29:49;;;;;;;14.95;5.43;;;;;;;19.29;100.00;101382.41;5041753;28;20171;-73
2022/10/02 11:32:42;;;;;;;15.07;3.20;;;;;;;19.39;100.00;101381.31;5049983;28;20121;-73
2022/10/02 11:35:18;;;;;;;12.00;2.83;;;;;;;19.79;100.00;101385.44;5055806;28;20052;-73
2022/10/02 11:38:03;;;;;;;10.75;2.70;;;;;;;20.26;100.00;101382.88;5058782;28;20066;-73
2022/10/02 11:40:53;;;;;;;14.00;2.88;;;;;;;20.50;91.74;101375.69;5054795;28;20044;-73
2022/10/02 11:43:34;;;;;;;7.60;1.95;;;;;;;20.49;85.16;101384.56;5060790;28;20048;-73
2022/10/02 11:46:32;;;;;;;11.18;3.10;;;;;;;20.57;88.24;101385.91;5051503;28;20047;-72
2022/10/02 11:49:06;;;;;;;10.43;3.03;;;;;;;20.33;87.22;101386.25;5060332;28;20048;-72
2022/10/02 11:51:45;;;;;;;12.18;2.60;;;;;;;20.25;90.96;101378.50;5052241;28;20041;-72
2022/10/02 11:54:23;;;;;;;14.25;2.55;;;;;;;20.26;91.85;101377.25;5054244;28;20052;-72
2022/10/02 11:57:15;;;;;;;12.30;2.90;;;;;;;19.95;88.08;101374.09;5063135;28;20201;-72
2022/10/02 12:00:12;;;;;;;12.15;2.55;;;;;;;19.66;86.36;101384.59;5056426;28;20067;-72
2022/10/02 12:02:51;;;;;;;8.98;2.35;;;;;;;19.71;91.34;101391.69;5054965;28;20037;-74
2022/10/02 12:05:41;;;;;;;14.32;2.70;;;;;;;19.62;91.47;101386.72;5052611;28;20048;-78
2022/10/02 12:08:23;;;;;;;15.80;2.70;;;;;;;19.54;92.04;101390.94;5059448;28;20063;-80
2022/10/02 12:11:15;;;;;;;11.48;2.35;;;;;;;19.60;91.47;101383.56;5051015;28;20087;-73
2022/10/02 12:14:00;;;;;;;11.20;2.47;;;;;;;19.57;90.08;101386.44;5040633;28;20124;-73
2022/10/02 12:17:06;;;;;;;13.57;3.38;;;;;;;19.40;88.51;101394.13;5058580;28;20094;-76
2022/10/02 12:28:42;;;;;;;12.38;2.50;;;;;;;20.18;90.55;101398.34;5052911;28;20671;-75
2022/10/02 12:31:11;;;;;;;;;;;;;;;20.41;89.38;101395.25;5063277;28;20296;-74